Time;durP1;ratioP1;P1;durP2;ratioP2;P2;SDS_P1;SDS_P2;PMS_P1;PMS_P2;Temp;Humidity;BMP_temperature;BMP_pressure;BME280_temperature;BME280_humidity;BME280_pressure;Samples;Min_cycle;Max_cycle;Signal;HPM_P1;HPM_P2
2023/07/19 00:01:05;;;;;;;3.65;3.05;;;;;;;;;;5089166;27;20031;-75
2023/07/19 00:03:31;;;;;;;5.70;3.75;;;;;;;;;;5105906;27;20104;-76
2023/07/19 00:06:01;;;;;;;8.43;3.80;;;;;;;;;;5088981;27;20085;-76
2023/07/19 00:08:27;;;;;;;10.82;3.10;;;;;;;;;;5087835;27;20267;-76
2023/07/19 00:10:53;;;;;;;5.30;3.28;;;;;;;;;;5108650;27;20046;-75
2023/07/19 00:13:19;;;;;;;7.85;3.42;;;;;;;;;;5097699;27;20047;-76
2023/07/19 00:15:45;;;;;;;9.73;3.80;;;;;;;;;;5106101;27;20035;-76
2023/07/19 00:18:12;;;;;;;9.00;3.47;;;;;;;;;;5098177;27;20491;-75
2023/07/19 00:20:38;;;;;;;3.85;3.10;;;;;;;;;;5107260;27;20043;-75
2023/07/19 00:23:04;;;;;;;3.70;3.30;;;;;;;;;;5105637;27;20039;-76
2023/07/19 00:25:30;;;;;;;7.43;3.58;;;;;;;;;;5070729;27;20105;-75
2023/07/19 00:27:56;;;;;;;6.80;3.72;;;;;;;;;;5102237;27;20546;-74
2023/07/19 00:30:22;;;;;;;8.27;3.85;;;;;;;;;;5083942;27;20035;-73
2023/07/19 00:32:48;;;;;;;6.35;3.85;;;;;;;;;;5072541;27;20157;-75
2023/07/19 00:35:14;;;;;;;6.15;3.63;;;;;;;;;;5086945;27;20489;-75
2023/07/19 00:37:43;;;;;;;7.68;4.13;;;;;;;;;;5070246;27;20046;-75
2023/07/19 00:40:09;;;;;;;6.00;3.38;;;;;;;;;;5069359;27;20710;-75
2023/07/19 00:42:35;;;;;;;10.60;4.32;;;;;;;;;;5104454;27;20034;-75
2023/07/19 00:45:02;;;;;;;7.28;4.28;;;;;;;;;;5102796;27;20991;-75
2023/07/19 00:47:28;;;;;;;7.28;4.05;;;;;;;;;;5088517;27;21844;-75
2023/07/19 00:49:55;;;;;;;5.25;4.07;;;;;;;;;;5085609;27;20051;-75
2023/07/19 00:52:21;;;;;;;5.35;4.10;;;;;;;;;;5103760;27;20046;-75
2023/07/19 00:54:47;;;;;;;5.57;4.10;;;;;;;;;;5103103;27;20063;-75
2023/07/19 00:57:13;;;;;;;7.68;3.85;;;;;;;;;;5086596;27;20033;-75
2023/07/19 00:59:41;;;;;;;9.13;4.53;;;;;;;;;;5086412;27;20043;-75
2023/07/19 01:02:07;;;;;;;8.35;4.45;;;;;;;;;;5087491;27;20054;-75
2023/07/19 01:04:34;;;;;;;8.57;4.40;;;;;;;;;;5106678;27;20034;-75
2023/07/19 01:07:02;;;;;;;7.30;3.75;;;;;;;;;;5087458;27;20187;-75
2023/07/19 01:09:28;;;;;;;9.52;4.13;;;;;;;;;;5090088;27;21951;-75
2023/07/19 01:11:54;;;;;;;6.03;3.95;;;;;;;;;;5088897;27;20043;-75
2023/07/19 01:14:20;;;;;;;7.20;4.30;;;;;;;;;;5070833;27;20066;-75
2023/07/19 01:16:46;;;;;;;7.13;4.50;;;;;;;;;;5088448;27;20516;-75
2023/07/19 01:19:14;;;;;;;4.97;3.90;;;;;;;;;;5106376;27;20069;-75
2023/07/19 01:21:40;;;;;;;4.32;3.70;;;;;;;;;;5087713;27;20048;-74
2023/07/19 01:24:06;;;;;;;6.03;4.10;;;;;;;;;;5107416;27;20031;-74
2023/07/19 01:26:32;;;;;;;6.65;4.10;;;;;;;;;;5086225;28;20851;-74
2023/07/19 01:28:58;;;;;;;9.95;4.60;;;;;;;;;;5103907;27;20045;-75
2023/07/19 01:31:25;;;;;;;5.00;4.50;;;;;;;;;;5088163;27;20516;-75
2023/07/19 01:33:51;;;;;;;6.80;4.25;;;;;;;;;;5084773;28;20053;-75
2023/07/19 01:36:17;;;;;;;5.22;4.10;;;;;;;;;;5104134;27;20534;-75
2023/07/19 01:38:43;;;;;;;6.90;4.47;;;;;;;;;;5103360;27;20039;-75
2023/07/19 01:41:09;;;;;;;9.85;4.47;;;;;;;;;;5103778;27;20493;-75
2023/07/19 01:43:35;;;;;;;5.97;4.35;;;;;;;;;;5102251;27;20067;-75
2023/07/19 01:46:01;;;;;;;6.78;4.47;;;;;;;;;;5068827;28;20043;-75
2023/07/19 01:48:28;;;;;;;9.35;4.70;;;;;;;;;;5082066;27;20638;-75
2023/07/19 01:50:54;;;;;;;8.18;4.68;;;;;;;;;;5084818;28;20050;-75
2023/07/19 01:53:20;;;;;;;6.03;3.85;;;;;;;;;;5087269;28;20055;-75
2023/07/19 01:55:46;;;;;;;9.18;3.97;;;;;;;;;;5103479;27;20036;-75
2023/07/19 01:58:12;;;;;;;8.32;3.67;;;;;;;;;;5085548;28;20150;-75
2023/07/19 02:00:38;;;;;;;8.05;4.30;;;;;;;;;;5084592;27;22020;-75
2023/07/19 02:03:05;;;;;;;7.72;4.03;;;;;;;;;;5083440;27;20081;-74
2023/07/19 02:05:31;;;;;;;6.53;3.53;;;;;;;;;;5086351;27;20104;-75
2023/07/19 02:07:57;;;;;;;7.65;4.30;;;;;;;;;;5082961;27;20112;-75
2023/07/19 02:10:23;;;;;;;7.22;3.97;;;;;;;;;;5102394;27;20047;-73
2023/07/19 02:12:49;;;;;;;9.07;4.32;;;;;;;;;;5102643;27;20104;-75
2023/07/19 02:15:16;;;;;;;6.68;4.10;;;;;;;;;;5102353;27;20145;-74
2023/07/19 02:17:42;;;;;;;5.57;4.55;;;;;;;;;;5082981;27;20043;-74
2023/07/19 02:20:08;;;;;;;6.85;4.15;;;;;;;;;;5079631;27;20545;-74
2023/07/19 02:22:34;;;;;;;5.20;4.70;;;;;;;;;;5098384;27;20035;-75
2023/07/19 02:25:00;;;;;;;8.43;4.80;;;;;;;;;;5085284;27;20031;-74
2023/07/19 02:27:26;;;;;;;8.82;4.93;;;;;;;;;;5103579;27;20035;-75
2023/07/19 02:29:52;;;;;;;11.35;4.95;;;;;;;;;;5103067;27;20038;-75
2023/07/19 02:32:18;;;;;;;8.20;5.00;;;;;;;;;;5082257;27;20152;-75
2023/07/19 02:34:44;;;;;;;7.93;4.65;;;;;;;;;;5084762;28;20126;-75
2023/07/19 02:37:10;;;;;;;9.57;5.10;;;;;;;;;;5084255;27;20043;-75
2023/07/19 02:39:37;;;;;;;7.40;4.88;;;;;;;;;;5103258;27;20054;-74
2023/07/19 02:42:03;;;;;;;13.90;4.97;;;;;;;;;;5088540;27;20038;-74
2023/07/19 02:44:30;;;;;;;13.25;5.07;;;;;;;;;;5088181;27;20043;-75
2023/07/19 02:46:56;;;;;;;8.23;5.10;;;;;;;;;;5088629;27;20036;-75
2023/07/19 02:49:24;;;;;;;8.77;5.18;;;;;;;;;;5100717;27;20049;-75
2023/07/19 02:51:50;;;;;;;7.43;4.97;;;;;;;;;;5086589;27;20077;-75
2023/07/19 02:54:16;;;;;;;12.05;6.07;;;;;;;;;;5106653;27;20051;-75
2023/07/19 02:56:42;;;;;;;9.13;4.88;;;;;;;;;;5086542;27;20123;-75
2023/07/19 02:59:09;;;;;;;13.25;5.80;;;;;;;;;;5076156;27;20671;-74
2023/07/19 03:01:36;;;;;;;12.95;6.10;;;;;;;;;;5108788;27;20089;-75
2023/07/19 03:04:02;;;;;;;10.98;5.57;;;;;;;;;;5109095;27;20047;-75
2023/07/19 03:06:29;;;;;;;12.32;5.85;;;;;;;;;;5088003;27;20560;-75
2023/07/19 03:08:55;;;;;;;8.23;5.60;;;;;;;;;;5088537;27;20042;-74
2023/07/19 03:11:21;;;;;;;10.50;6.60;;;;;;;;;;5088509;27;20043;-75
2023/07/19 03:13:48;;;;;;;8.43;6.13;;;;;;;;;;5086740;27;20050;-75
2023/07/19 03:16:14;;;;;;;7.97;5.90;;;;;;;;;;5107269;27;20047;-75
2023/07/19 03:18:40;;;;;;;10.13;6.32;;;;;;;;;;5105702;27;20097;-75
2023/07/19 03:21:06;;;;;;;10.40;6.68;;;;;;;;;;5104950;27;20038;-75
2023/07/19 03:23:33;;;;;;;9.88;7.03;;;;;;;;;;5088206;27;20077;-75
2023/07/19 03:25:59;;;;;;;9.23;6.28;;;;;;;;;;5086200;27;20548;-74
2023/07/19 03:28:30;;;;;;;11.18;6.82;;;;;;;;;;5071447;27;22305;-75
2023/07/19 03:30:57;;;;;;;8.55;6.00;;;;;;;;;;5085764;27;20043;-75
2023/07/19 03:33:23;;;;;;;12.52;6.40;;;;;;;;;;5086731;27;20058;-74
2023/07/19 03:35:49;;;;;;;10.48;5.97;;;;;;;;;;5084704;27;20051;-75
2023/07/19 03:38:19;;;;;;;8.30;6.30;;;;;;;;;;5082321;27;20047;-75
2023/07/19 03:40:45;;;;;;;7.95;6.30;;;;;;;;;;5080377;27;20047;-75
2023/07/19 03:43:11;;;;;;;13.40;6.30;;;;;;;;;;5102594;27;20517;-75
2023/07/19 03:45:37;;;;;;;7.82;6.40;;;;;;;;;;5102788;27;20126;-74
2023/07/19 03:48:03;;;;;;;12.02;6.47;;;;;;;;;;5084310;27;20043;-74
2023/07/19 03:50:30;;;;;;;6.55;5.78;;;;;;;;;;5084700;27;21004;-75
2023/07/19 03:52:56;;;;;;;9.25;6.55;;;;;;;;;;5084307;27;20072;-74
2023/07/19 03:55:22;;;;;;;9.02;6.88;;;;;;;;;;5097394;27;20027;-74
2023/07/19 03:57:48;;;;;;;9.60;7.00;;;;;;;;;;5083608;27;20146;-74
2023/07/19 04:00:14;;;;;;;13.30;7.13;;;;;;;;;;5102021;27;20127;-74
2023/07/19 04:02:40;;;;;;;14.45;7.68;;;;;;;;;;5084913;27;20146;-74
2023/07/19 04:05:06;;;;;;;9.18;6.95;;;;;;;;;;5066976;27;20070;-74
2023/07/19 04:07:32;;;;;;;9.23;7.18;;;;;;;;;;5082363;27;20506;-73
2023/07/19 04:09:58;;;;;;;10.10;6.60;;;;;;;;;;5095072;27;20158;-75
2023/07/19 04:12:24;;;;;;;16.08;8.95;;;;;;;;;;5078388;27;20059;-75
2023/07/19 04:14:50;;;;;;;12.85;7.72;;;;;;;;;;5065174;27;20047;-75
2023/07/19 04:17:17;;;;;;;13.10;7.95;;;;;;;;;;5083301;27;20130;-75
2023/07/19 04:19:43;;;;;;;12.30;8.02;;;;;;;;;;5082672;27;20047;-75
2023/07/19 04:22:09;;;;;;;9.27;7.68;;;;;;;;;;5099984;27;20050;-75
2023/07/19 04:24:35;;;;;;;10.65;9.32;;;;;;;;;;5080536;27;20775;-75
2023/07/19 04:27:01;;;;;;;11.27;8.27;;;;;;;;;;5101340;27;20398;-74
2023/07/19 04:29:27;;;;;;;11.45;7.90;;;;;;;;;;5083363;27;20039;-75
2023/07/19 04:31:53;;;;;;;12.25;8.15;;;;;;;;;;5101684;27;20045;-75
2023/07/19 04:34:20;;;;;;;11.60;8.65;;;;;;;;;;5098767;27;20043;-75
2023/07/19 04:36:46;;;;;;;11.80;8.75;;;;;;;;;;5082688;27;20718;-74
2023/07/19 04:39:12;;;;;;;11.70;7.93;;;;;;;;;;5066258;27;20043;-75
2023/07/19 04:41:38;;;;;;;12.20;8.65;;;;;;;;;;5065341;27;20203;-75
2023/07/19 04:44:04;;;;;;;16.58;9.18;;;;;;;;;;5098950;27;20035;-75
2023/07/19 04:46:30;;;;;;;10.02;8.20;;;;;;;;;;5096842;27;20078;-75
2023/07/19 04:48:56;;;;;;;13.05;8.85;;;;;;;;;;5072960;27;20046;-75
2023/07/19 04:51:23;;;;;;;9.73;8.68;;;;;;;;;;5082137;27;20171;-75
2023/07/19 04:53:50;;;;;;;11.32;8.70;;;;;;;;;;5102634;27;20084;-75
2023/07/19 04:56:16;;;;;;;14.85;8.80;;;;;;;;;;5082275;27;20046;-74
2023/07/19 04:58:42;;;;;;;12.23;8.93;;;;;;;;;;5079087;27;20047;-75
2023/07/19 05:01:08;;;;;;;13.00;9.82;;;;;;;;;;5083388;27;22013;-75
2023/07/19 05:03:35;;;;;;;14.25;9.32;;;;;;;;;;5085555;27;20043;-75
2023/07/19 05:06:01;;;;;;;13.75;9.13;;;;;;;;;;5084917;27;20040;-75
2023/07/19 05:08:27;;;;;;;14.45;9.50;;;;;;;;;;5106593;27;20050;-75
2023/07/19 05:10:53;;;;;;;10.65;8.88;;;;;;;;;;5086859;27;20167;-75
2023/07/19 05:13:19;;;;;;;12.10;9.10;;;;;;;;;;5089387;27;20047;-75
2023/07/19 05:15:46;;;;;;;15.68;8.60;;;;;;;;;;5090306;27;20051;-75
2023/07/19 05:18:12;;;;;;;11.35;8.80;;;;;;;;;;5103292;27;20059;-76
2023/07/19 05:20:38;;;;;;;12.00;9.45;;;;;;;;;;5106522;27;20107;-75
2023/07/19 05:23:04;;;;;;;10.93;8.35;;;;;;;;;;5089045;27;20078;-75
2023/07/19 05:25:30;;;;;;;12.00;8.68;;;;;;;;;;5067108;27;20103;-75
2023/07/19 05:27:56;;;;;;;12.27;9.02;;;;;;;;;;5088671;27;20114;-75
2023/07/19 05:30:22;;;;;;;12.02;9.02;;;;;;;;;;5098064;27;20039;-76
2023/07/19 05:32:48;;;;;;;13.65;8.65;;;;;;;;;;5094661;27;20027;-75
2023/07/19 05:35:14;;;;;;;9.65;8.65;;;;;;;;;;5051260;27;20043;-75
2023/07/19 05:37:40;;;;;;;13.73;8.50;;;;;;;;;;5081827;27;20047;-75
2023/07/19 05:40:08;;;;;;;14.65;8.52;;;;;;;;;;5100907;27;20047;-75
2023/07/19 05:42:34;;;;;;;17.20;9.48;;;;;;;;;;5083800;27;20073;-75
2023/07/19 05:45:00;;;;;;;10.77;8.30;;;;;;;;;;5080198;27;20082;-75
2023/07/19 05:47:26;;;;;;;11.05;7.93;;;;;;;;;;5088516;27;20035;-75
2023/07/19 05:49:52;;;;;;;11.55;8.55;;;;;;;;;;5085430;27;20126;-75
2023/07/19 05:52:18;;;;;;;11.77;8.68;;;;;;;;;;5083739;27;20051;-76
2023/07/19 05:54:45;;;;;;;9.93;8.90;;;;;;;;;;5082239;27;20452;-76
2023/07/19 05:57:11;;;;;;;15.20;8.60;;;;;;;;;;5083132;28;20114;-76
2023/07/19 05:59:37;;;;;;;11.48;9.00;;;;;;;;;;5082704;28;20125;-76
2023/07/19 06:02:05;;;;;;;10.80;8.95;;;;;;;;;;5080981;28;20047;-76
2023/07/19 06:04:31;;;;;;;15.52;10.25;;;;;;;;;;5082526;28;20062;-75
2023/07/19 06:06:57;;;;;;;12.55;8.63;;;;;;;;;;5085093;28;20043;-75
2023/07/19 06:09:24;;;;;;;13.15;8.93;;;;;;;;;;5100066;27;20042;-76
2023/07/19 06:11:50;;;;;;;11.52;8.88;;;;;;;;;;5083507;28;20431;-76
2023/07/19 06:14:16;;;;;;;15.18;8.43;;;;;;;;;;5064696;27;20138;-76
2023/07/19 06:16:42;;;;;;;9.70;8.70;;;;;;;;;;5104965;27;20095;-76
2023/07/19 06:19:08;;;;;;;12.65;8.70;;;;;;;;;;5087330;27;20043;-75
2023/07/19 06:21:34;;;;;;;10.48;8.35;;;;;;;;;;5086470;27;20043;-76
2023/07/19 06:24:01;;;;;;;11.38;7.40;;;;;;;;;;5103077;27;20593;-76
2023/07/19 06:26:27;;;;;;;11.75;7.47;;;;;;;;;;5103657;27;20066;-76
2023/07/19 06:28:53;;;;;;;13.07;8.05;;;;;;;;;;5063898;27;20039;-75
2023/07/19 06:31:19;;;;;;;10.77;7.20;;;;;;;;;;5087662;27;20138;-75
2023/07/19 06:33:45;;;;;;;10.95;7.82;;;;;;;;;;5086138;27;20147;-76
2023/07/19 06:36:11;;;;;;;10.57;6.70;;;;;;;;;;5089971;27;20050;-75
2023/07/19 06:38:37;;;;;;;11.13;5.80;;;;;;;;;;5107246;27;20134;-76
2023/07/19 06:41:04;;;;;;;9.40;5.30;;;;;;;;;;5089353;27;20102;-75
2023/07/19 06:43:30;;;;;;;6.97;5.00;;;;;;;;;;5089677;27;20043;-76
2023/07/19 06:45:57;;;;;;;10.02;4.80;;;;;;;;;;5088313;27;20043;-76
2023/07/19 06:48:23;;;;;;;10.40;4.68;;;;;;;;;;5107704;27;20051;-75
2023/07/19 06:50:50;;;;;;;7.57;3.88;;;;;;;;;;5088137;27;20043;-75
2023/07/19 06:53:16;;;;;;;9.02;3.95;;;;;;;;;;5102443;27;20159;-75
2023/07/19 06:55:42;;;;;;;11.43;4.25;;;;;;;;;;5105509;27;20052;-75
2023/07/19 06:58:08;;;;;;;11.80;3.90;;;;;;;;;;5073202;27;20042;-76
2023/07/19 07:00:34;;;;;;;7.78;3.60;;;;;;;;;;5112399;27;20043;-76
2023/07/19 07:03:03;;;;;;;8.90;3.55;;;;;;;;;;5094429;27;20032;-76
2023/07/19 07:05:30;;;;;;;8.57;4.00;;;;;;;;;;5092370;27;20064;-76
2023/07/19 07:07:56;;;;;;;5.90;3.20;;;;;;;;;;5090700;27;20050;-76
2023/07/19 07:10:22;;;;;;;4.13;3.08;;;;;;;;;;5090914;27;20057;-76
2023/07/19 07:12:48;;;;;;;8.32;3.70;;;;;;;;;;5070852;27;20087;-76
2023/07/19 07:15:15;;;;;;;5.20;3.60;;;;;;;;;;5070054;27;20085;-76
2023/07/19 07:17:41;;;;;;;7.57;3.83;;;;;;;;;;5090056;27;20047;-76
2023/07/19 07:20:07;;;;;;;6.68;3.75;;;;;;;;;;5106131;27;20043;-76
2023/07/19 07:22:34;;;;;;;9.80;3.60;;;;;;;;;;5088723;27;20043;-76
2023/07/19 07:25:00;;;;;;;6.03;3.05;;;;;;;;;;5087312;27;21718;-76
2023/07/19 07:27:29;;;;;;;7.38;3.28;;;;;;;;;;5105148;27;20451;-76
2023/07/19 07:29:56;;;;;;;7.00;4.88;;;;;;;;;;5087703;27;20043;-76
2023/07/19 07:32:22;;;;;;;9.02;3.20;;;;;;;;;;5086705;27;20047;-76
2023/07/19 07:34:48;;;;;;;6.78;3.10;;;;;;;;;;5085851;27;20047;-77
2023/07/19 07:37:14;;;;;;;12.10;3.60;;;;;;;;;;5085902;27;20049;-77
2023/07/19 07:39:40;;;;;;;4.70;3.03;;;;;;;;;;5105076;27;20040;-77
2023/07/19 07:42:07;;;;;;;7.82;3.10;;;;;;;;;;5086376;27;20059;-77
2023/07/19 07:44:33;;;;;;;7.22;3.55;;;;;;;;;;5086196;27;20147;-77
2023/07/19 07:46:59;;;;;;;5.97;3.53;;;;;;;;;;5085136;27;20046;-77
2023/07/19 07:49:26;;;;;;;6.15;3.30;;;;;;;;;;5087640;27;20043;-77
2023/07/19 07:51:52;;;;;;;8.25;3.75;;;;;;;;;;5102554;27;20054;-77
2023/07/19 07:54:18;;;;;;;10.48;3.75;;;;;;;;;;5088255;27;20055;-76
2023/07/19 07:56:44;;;;;;;8.25;2.90;;;;;;;;;;5087930;27;20069;-76
2023/07/19 07:59:10;;;;;;;8.50;3.17;;;;;;;;;;5104771;27;20043;-75
2023/07/19 08:01:36;;;;;;;8.00;3.55;;;;;;;;;;5066024;27;20155;-75
2023/07/19 08:04:02;;;;;;;7.00;3.28;;;;;;;;;;5086448;27;20077;-75
2023/07/19 08:06:28;;;;;;;7.18;3.20;;;;;;;;;;5097445;27;20190;-75
2023/07/19 08:08:54;;;;;;;6.50;3.38;;;;;;;;;;5086064;27;20043;-75
2023/07/19 08:11:21;;;;;;;7.47;2.95;;;;;;;;;;5070281;27;20122;-75
2023/07/19 08:13:47;;;;;;;8.40;2.72;;;;;;;;;;5084438;27;20687;-75
2023/07/19 08:16:14;;;;;;;6.47;3.78;;;;;;;;;;5083606;27;20058;-75
2023/07/19 08:18:40;;;;;;;5.22;2.75;;;;;;;;;;5082178;27;20095;-75
2023/07/19 08:21:06;;;;;;;5.13;2.92;;;;;;;;;;5086567;27;20035;-74
2023/07/19 08:23:33;;;;;;;10.73;3.97;;;;;;;;;;5104883;27;20109;-75
2023/07/19 08:25:59;;;;;;;9.45;2.50;;;;;;;;;;5103639;27;20664;-75
2023/07/19 08:28:25;;;;;;;4.28;1.80;;;;;;;;;;5085532;27;20050;-75
2023/07/19 08:30:52;;;;;;;3.22;1.90;;;;;;;;;;5072399;27;20047;-75
2023/07/19 08:33:19;;;;;;;5.85;1.60;;;;;;;;;;5102808;27;20175;-74
2023/07/19 08:35:45;;;;;;;6.72;2.42;;;;;;;;;;5102752;27;20086;-75
2023/07/19 08:38:12;;;;;;;6.18;1.90;;;;;;;;;;5079908;27;20741;-76
2023/07/19 08:40:39;;;;;;;3.08;1.50;;;;;;;;;;5068438;27;20035;-75
2023/07/19 08:43:06;;;;;;;5.18;1.65;;;;;;;;;;5101413;27;20078;-76
2023/07/19 08:45:34;;;;;;;4.78;2.20;;;;;;;;;;5097682;27;20037;-81
2023/07/19 08:48:00;;;;;;;4.95;2.10;;;;;;;;;;5101652;27;20240;-75
2023/07/19 08:50:27;;;;;;;4.57;2.08;;;;;;;;;;5100152;27;20044;-75
2023/07/19 08:52:53;;;;;;;3.42;1.60;;;;;;;;;;5102271;27;20453;-78
2023/07/19 08:55:20;;;;;;;4.70;2.10;;;;;;;;;;5079739;27;20046;-76
2023/07/19 08:57:46;;;;;;;3.90;1.98;;;;;;;;;;5085095;27;20043;-76
2023/07/19 09:00:17;;;;;;;6.95;2.00;;;;;;;;;;5085542;27;20085;-76
2023/07/19 09:02:43;;;;;;;5.40;1.80;;;;;;;;;;5082679;27;20562;-77
2023/07/19 09:05:10;;;;;;;8.27;1.85;;;;;;;;;;5082996;27;20046;-78
2023/07/19 09:07:36;;;;;;;4.15;1.52;;;;;;;;;;5080044;27;20043;-77
2023/07/19 09:10:03;;;;;;;3.33;1.23;;;;;;;;;;5084762;27;20078;-77
2023/07/19 09:12:36;;;;;;;5.10;1.60;;;;;;;;;;5086168;27;22107;-77
2023/07/19 09:15:03;;;;;;;3.00;1.70;;;;;;;;;;5100663;27;20043;-76
2023/07/19 09:17:29;;;;;;;3.75;1.30;;;;;;;;;;5061895;27;20039;-75
2023/07/19 09:19:55;;;;;;;4.78;1.80;;;;;;;;;;5099653;27;20043;-74
2023/07/19 09:22:21;;;;;;;6.68;1.50;;;;;;;;;;5068338;27;20047;-77
2023/07/19 09:24:55;;;;;;;7.47;1.60;;;;;;;;;;5082515;27;20495;-76
2023/07/19 09:27:25;;;;;;;4.97;1.25;;;;;;;;;;5100979;27;20166;-76
2023/07/19 09:29:51;;;;;;;6.43;1.42;;;;;;;;;;5082415;27;20047;-75
2023/07/19 09:32:17;;;;;;;2.97;1.35;;;;;;;;;;5067207;27;20091;-76
2023/07/19 09:34:44;;;;;;;7.63;1.30;;;;;;;;;;5100280;27;20047;-76
2023/07/19 09:37:10;;;;;;;2.22;1.35;;;;;;;;;;5099703;27;20444;-76
2023/07/19 09:39:37;;;;;;;4.30;1.20;;;;;;;;;;5082704;27;22133;-76
2023/07/19 09:42:04;;;;;;;4.65;1.27;;;;;;;;;;5098453;27;20038;-75
2023/07/19 09:44:30;;;;;;;5.03;1.40;;;;;;;;;;5082416;27;20057;-76
2023/07/19 09:46:57;;;;;;;2.25;1.08;;;;;;;;;;5080581;28;20047;-76
2023/07/19 09:49:23;;;;;;;4.45;1.25;;;;;;;;;;5102227;27;20043;-76
2023/07/19 09:51:50;;;;;;;4.30;1.17;;;;;;;;;;5086884;27;20070;-76
2023/07/19 09:54:16;;;;;;;9.68;1.30;;;;;;;;;;5092333;27;20058;-76
2023/07/19 09:56:43;;;;;;;4.28;1.23;;;;;;;;;;5106954;27;20043;-78
2023/07/19 09:59:12;;;;;;;2.67;1.20;;;;;;;;;;5086697;27;20051;-76
2023/07/19 10:01:39;;;;;;;4.20;1.60;;;;;;;;;;5091226;27;20047;-83
2023/07/19 10:04:24;;;;;;;3.20;1.00;;;;;;;;;;5088692;27;20523;-76
2023/07/19 10:06:50;;;;;;;4.13;1.70;;;;;;;;;;5090626;27;20039;-77
2023/07/19 10:09:23;;;;;;;2.17;0.77;;;;;;;;;;5088339;27;20047;-77
2023/07/19 10:11:52;;;;;;;2.42;0.85;;;;;;;;;;5099868;27;20047;-77
2023/07/19 10:14:28;;;;;;;3.17;1.10;;;;;;;;;;5106737;27;20142;-76
2023/07/19 10:17:01;;;;;;;3.15;1.00;;;;;;;;;;5087825;27;20046;-76
2023/07/19 10:19:27;;;;;;;2.35;0.88;;;;;;;;;;5105222;27;20050;-76
2023/07/19 10:22:07;;;;;;;3.10;0.93;;;;;;;;;;5073557;27;20201;-77
2023/07/19 10:24:35;;;;;;;2.72;0.70;;;;;;;;;;5088816;27;20039;-76
2023/07/19 10:27:09;;;;;;;6.03;1.33;;;;;;;;;;5107032;27;20035;-76
2023/07/19 10:29:46;;;;;;;1.63;0.60;;;;;;;;;;5106914;27;20063;-77
2023/07/19 10:32:13;;;;;;;2.85;0.88;;;;;;;;;;5109830;27;20197;-76
2023/07/19 10:34:39;;;;;;;2.83;0.73;;;;;;;;;;5090440;27;20035;-76
2023/07/19 10:37:06;;;;;;;1.85;0.70;;;;;;;;;;5086653;27;20119;-77
2023/07/19 10:39:32;;;;;;;5.00;0.80;;;;;;;;;;5109099;27;20652;-75
2023/07/19 10:42:01;;;;;;;2.78;0.80;;;;;;;;;;5089169;27;20122;-77
2023/07/19 10:44:27;;;;;;;1.50;0.60;;;;;;;;;;5091243;27;21951;-76
2023/07/19 10:46:54;;;;;;;2.80;0.82;;;;;;;;;;5106935;27;20043;-76
2023/07/19 10:49:24;;;;;;;2.03;0.75;;;;;;;;;;5088842;27;20479;-77
2023/07/19 10:51:54;;;;;;;2.78;0.90;;;;;;;;;;5110718;27;20093;-77
2023/07/19 10:54:20;;;;;;;2.50;0.90;;;;;;;;;;5092264;27;20051;-77
2023/07/19 10:56:48;;;;;;;3.63;0.82;;;;;;;;;;5088104;27;20134;-77
2023/07/19 10:59:14;;;;;;;1.50;0.80;;;;;;;;;;5113544;27;20051;-78
2023/07/19 11:01:40;;;;;;;1.73;0.60;;;;;;;;;;5089654;27;20042;-78
2023/07/19 11:04:07;;;;;;;2.60;0.75;;;;;;;;;;5107906;27;20061;-78
2023/07/19 11:06:34;;;;;;;2.85;0.90;;;;;;;;;;5100421;27;20042;-78
2023/07/19 11:09:03;;;;;;;2.17;0.80;;;;;;;;;;5108110;27;20103;-78
2023/07/19 11:11:30;;;;;;;4.95;1.20;;;;;;;;;;5108312;27;20390;-78
2023/07/19 11:13:56;;;;;;;2.13;0.80;;;;;;;;;;5068058;27;20097;-78
2023/07/19 11:16:22;;;;;;;1.40;0.80;;;;;;;;;;5091465;27;20049;-78
2023/07/19 11:18:48;;;;;;;3.25;1.00;;;;;;;;;;5090516;27;20047;-78
2023/07/19 11:21:24;;;;;;;1.80;0.77;;;;;;;;;;5107179;27;20039;-77
2023/07/19 11:23:50;;;;;;;3.95;0.60;;;;;;;;;;5069085;27;20050;-77
2023/07/19 11:26:16;;;;;;;2.88;0.90;;;;;;;;;;5074502;27;20043;-78
2023/07/19 11:28:42;;;;;;;3.20;1.08;;;;;;;;;;5090354;27;20082;-77
2023/07/19 11:31:10;;;;;;;3.17;0.80;;;;;;;;;;5092029;27;20104;-74
2023/07/19 11:33:36;;;;;;;2.20;0.70;;;;;;;;;;5104760;27;20121;-75
2023/07/19 11:36:07;;;;;;;0.75;0.65;;;;;;;;;;5084519;27;20072;-75
2023/07/19 11:38:33;;;;;;;3.10;1.00;;;;;;;;;;5105291;27;20048;-75
2023/07/19 11:40:59;;;;;;;4.20;0.80;;;;;;;;;;5087713;27;20498;-76
2023/07/19 11:43:26;;;;;;;1.88;1.00;;;;;;;;;;5107046;27;20095;-76
2023/07/19 11:45:52;;;;;;;3.85;0.77;;;;;;;;;;5106899;27;20027;-76
2023/07/19 11:48:19;;;;;;;3.17;0.70;;;;;;;;;;5089998;27;20051;-77
2023/07/19 11:50:48;;;;;;;8.25;1.38;;;;;;;;;;5101963;27;20126;-76
2023/07/19 11:53:14;;;;;;;2.13;1.15;;;;;;;;;;5087539;27;20066;-76
2023/07/19 11:55:40;;;;;;;2.03;0.80;;;;;;;;;;5092177;27;20043;-76
2023/07/19 11:58:07;;;;;;;2.50;1.30;;;;;;;;;;5103646;27;20058;-76
2023/07/19 12:00:33;;;;;;;3.13;1.15;;;;;;;;;;5104722;27;20075;-77
2023/07/19 12:03:01;;;;;;;2.90;0.93;;;;;;;;;;5110470;27;20117;-76
2023/07/19 12:05:27;;;;;;;1.60;0.75;;;;;;;;;;5106480;27;20507;-76
2023/07/19 12:07:55;;;;;;;2.22;0.93;;;;;;;;;;5107528;27;20042;-76
2023/07/19 12:10:21;;;;;;;1.00;0.65;;;;;;;;;;5086234;27;20152;-76
2023/07/19 12:12:48;;;;;;;3.90;0.70;;;;;;;;;;5087887;28;20092;-75
2023/07/19 12:15:15;;;;;;;2.30;0.68;;;;;;;;;;5087222;27;20043;-76
2023/07/19 12:17:41;;;;;;;2.65;0.75;;;;;;;;;;5102274;27;20039;-76
2023/07/19 12:20:08;;;;;;;3.28;0.70;;;;;;;;;;5105146;27;20057;-76
2023/07/19 12:22:38;;;;;;;2.10;0.70;;;;;;;;;;5103963;27;20038;-76
2023/07/19 12:25:04;;;;;;;4.22;0.50;;;;;;;;;;5090003;27;20467;-77
2023/07/19 12:27:31;;;;;;;1.95;0.60;;;;;;;;;;5085094;27;20087;-77
2023/07/19 12:29:58;;;;;;;1.98;0.70;;;;;;;;;;5103012;27;20054;-76
2023/07/19 12:32:24;;;;;;;2.35;0.65;;;;;;;;;;5084474;27;20112;-77
2023/07/19 12:34:50;;;;;;;1.92;0.68;;;;;;;;;;5086500;27;20740;-76
2023/07/19 12:37:17;;;;;;;2.47;0.88;;;;;;;;;;5066646;27;20047;-76
2023/07/19 12:39:43;;;;;;;2.25;0.80;;;;;;;;;;5084172;27;20406;-76
2023/07/19 12:42:10;;;;;;;1.25;0.50;;;;;;;;;;5102006;27;20047;-78
2023/07/19 12:44:36;;;;;;;1.83;0.60;;;;;;;;;;5086521;27;20482;-77
2023/07/19 12:47:03;;;;;;;2.78;0.90;;;;;;;;;;5085693;27;20593;-77
2023/07/19 12:49:30;;;;;;;0.90;0.73;;;;;;;;;;5084792;27;20039;-76
2023/07/19 12:51:56;;;;;;;4.07;0.60;;;;;;;;;;5105120;27;20451;-77
2023/07/19 12:54:23;;;;;;;1.17;0.60;;;;;;;;;;5061113;27;20061;-76
2023/07/19 12:56:49;;;;;;;1.23;0.40;;;;;;;;;;5099868;27;20073;-76
2023/07/19 12:59:15;;;;;;;1.63;0.60;;;;;;;;;;5102187;27;20051;-76
2023/07/19 13:01:41;;;;;;;0.98;0.55;;;;;;;;;;5085662;27;20122;-76
2023/07/19 13:04:07;;;;;;;1.17;0.60;;;;;;;;;;5083888;27;20123;-77
2023/07/19 13:06:34;;;;;;;1.10;0.60;;;;;;;;;;5083558;27;20043;-76
2023/07/19 13:09:02;;;;;;;2.88;0.50;;;;;;;;;;5082971;27;20483;-76
2023/07/19 13:11:28;;;;;;;1.85;0.90;;;;;;;;;;5105864;27;20053;-75
2023/07/19 13:13:54;;;;;;;1.55;0.50;;;;;;;;;;5106477;27;20058;-76
2023/07/19 13:16:20;;;;;;;1.05;0.50;;;;;;;;;;5084446;27;20039;-76
2023/07/19 13:18:46;;;;;;;1.30;0.60;;;;;;;;;;5083179;27;20084;-74
2023/07/19 13:21:13;;;;;;;0.70;0.40;;;;;;;;;;5068732;27;20298;-74
2023/07/19 13:23:39;;;;;;;0.85;0.50;;;;;;;;;;5070226;27;20035;-74
2023/07/19 13:26:05;;;;;;;1.85;0.57;;;;;;;;;;5079869;27;20039;-75
2023/07/19 13:28:32;;;;;;;1.05;0.60;;;;;;;;;;5084819;27;20050;-75
2023/07/19 13:31:00;;;;;;;0.68;0.50;;;;;;;;;;5083799;27;20047;-74
2023/07/19 13:33:26;;;;;;;1.33;0.50;;;;;;;;;;5079450;27;20444;-74
2023/07/19 13:35:52;;;;;;;2.80;0.55;;;;;;;;;;5096730;27;21237;-75
2023/07/19 13:38:19;;;;;;;1.42;0.50;;;;;;;;;;5079433;27;20174;-75
2023/07/19 13:40:48;;;;;;;1.20;0.55;;;;;;;;;;5082068;28;20043;-75
2023/07/19 13:43:14;;;;;;;1.35;0.60;;;;;;;;;;5080167;27;21665;-75
2023/07/19 13:45:40;;;;;;;1.83;0.70;;;;;;;;;;5100421;27;20046;-75
2023/07/19 13:48:06;;;;;;;0.75;0.38;;;;;;;;;;5065577;27;20628;-75
2023/07/19 13:50:32;;;;;;;3.10;0.75;;;;;;;;;;5078587;28;20434;-75
2023/07/19 13:52:59;;;;;;;0.47;0.38;;;;;;;;;;5079993;28;20074;-74
2023/07/19 13:55:25;;;;;;;0.93;0.47;;;;;;;;;;5079536;28;20051;-74
2023/07/19 13:57:51;;;;;;;0.98;0.50;;;;;;;;;;5079955;28;20051;-75
2023/07/19 14:00:17;;;;;;;1.60;0.45;;;;;;;;;;5079988;28;20048;-75
2023/07/19 14:02:44;;;;;;;2.15;0.45;;;;;;;;;;5081343;28;20042;-75
2023/07/19 14:05:12;;;;;;;1.70;0.32;;;;;;;;;;5096758;27;20054;-75
2023/07/19 14:07:38;;;;;;;2.05;0.50;;;;;;;;;;5098455;27;20043;-75
2023/07/19 14:10:04;;;;;;;0.47;0.38;;;;;;;;;;5086776;28;20483;-75
2023/07/19 14:12:31;;;;;;;2.95;0.40;;;;;;;;;;5100604;27;20410;-75
2023/07/19 14:14:57;;;;;;;1.80;0.40;;;;;;;;;;5099829;27;21098;-75
2023/07/19 14:17:26;;;;;;;0.95;0.38;;;;;;;;;;5083916;28;20035;-75
2023/07/19 14:19:53;;;;;;;1.40;0.40;;;;;;;;;;5101166;27;20055;-75
2023/07/19 14:22:19;;;;;;;1.40;0.50;;;;;;;;;;5083060;28;20817;-74
2023/07/19 14:24:45;;;;;;;1.20;0.40;;;;;;;;;;5101324;27;20050;-75
2023/07/19 14:27:12;;;;;;;1.13;0.50;;;;;;;;;;5084503;28;20047;-74
2023/07/19 14:29:40;;;;;;;0.85;0.30;;;;;;;;;;5083848;28;20088;-74
2023/07/19 14:32:06;;;;;;;0.80;0.43;;;;;;;;;;5102193;27;20039;-74
2023/07/19 14:34:32;;;;;;;0.90;0.40;;;;;;;;;;5096433;27;20095;-74
2023/07/19 14:36:59;;;;;;;1.38;0.50;;;;;;;;;;5063650;27;20157;-75